createdAt,value
2018-08-30T00:02:12.294Z,99.90
2018-08-30T00:04:39.448Z,99.90
2018-08-30T00:07:06.607Z,99.90
2018-08-30T00:09:33.729Z,99.90
2018-08-30T00:12:01.766Z,99.90
2018-08-30T00:14:29.042Z,99.90
2018-08-30T00:16:56.226Z,99.90
2018-08-30T00:19:23.357Z,99.90
2018-08-30T00:21:50.491Z,99.90
2018-08-30T00:24:17.693Z,99.90
2018-08-30T00:26:44.839Z,99.90
2018-08-30T00:29:11.982Z,99.90
2018-08-30T00:31:39.125Z,99.90
2018-08-30T00:34:06.294Z,99.90
2018-08-30T00:36:33.404Z,99.90
2018-08-30T00:39:01.021Z,99.90
2018-08-30T00:41:28.268Z,99.90
2018-08-30T00:43:55.308Z,99.90
2018-08-30T00:46:22.442Z,99.90
2018-08-30T00:48:49.560Z,99.90
2018-08-30T00:51:16.725Z,99.90
2018-08-30T00:53:43.945Z,99.90
2018-08-30T00:56:11.161Z,99.90
2018-08-30T00:58:38.293Z,99.90
2018-08-30T01:01:05.421Z,99.90
2018-08-30T01:03:32.538Z,99.90
2018-08-30T01:05:59.655Z,99.90
2018-08-30T01:08:26.829Z,99.90
2018-08-30T01:10:53.993Z,99.90
2018-08-30T01:13:21.128Z,99.90
2018-08-30T01:15:48.272Z,99.90
2018-08-30T01:18:15.412Z,99.90
2018-08-30T01:20:42.579Z,99.90
2018-08-30T01:23:09.815Z,99.90
2018-08-30T01:25:37.246Z,99.90
2018-08-30T01:28:04.424Z,99.90
2018-08-30T01:30:31.603Z,99.90
2018-08-30T01:32:58.737Z,99.90
2018-08-30T01:35:25.851Z,99.90
2018-08-30T01:37:53.074Z,99.90
2018-08-30T01:40:20.370Z,99.90
2018-08-30T01:42:47.523Z,99.90
2018-08-30T01:45:14.664Z,99.90
2018-08-30T01:47:41.859Z,99.90
2018-08-30T01:50:09.019Z,99.90
2018-08-30T01:52:36.145Z,99.90
2018-08-30T01:55:03.289Z,99.90
2018-08-30T01:57:30.414Z,99.90
2018-08-30T01:59:57.582Z,99.90
2018-08-30T02:02:24.707Z,99.90
2018-08-30T02:04:51.833Z,99.90
2018-08-30T02:07:18.994Z,99.90
2018-08-30T02:09:46.211Z,99.90
2018-08-30T02:12:13.369Z,99.90
2018-08-30T02:14:40.513Z,99.90
2018-08-30T02:17:07.622Z,99.90
2018-08-30T02:19:34.755Z,99.90
2018-08-30T02:22:01.882Z,99.90
2018-08-30T02:24:29.007Z,99.90
2018-08-30T02:26:56.126Z,99.90
2018-08-30T02:29:23.254Z,99.90
2018-08-30T02:31:50.391Z,99.90
2018-08-30T02:34:17.523Z,99.90
2018-08-30T02:36:44.700Z,99.90
2018-08-30T02:39:11.887Z,99.90
2018-08-30T02:41:39.136Z,99.90
2018-08-30T02:44:06.296Z,99.90
2018-08-30T02:46:33.687Z,99.90
2018-08-30T02:49:00.876Z,99.90
2018-08-30T02:51:27.951Z,99.90
2018-08-30T02:53:55.086Z,99.90
2018-08-30T02:56:22.209Z,99.90
2018-08-30T02:58:49.642Z,99.90
2018-08-30T03:01:16.999Z,99.90
2018-08-30T03:03:44.171Z,99.90
2018-08-30T03:06:11.459Z,99.90
2018-08-30T03:08:38.582Z,99.90
2018-08-30T03:11:06.036Z,99.90
2018-08-30T03:13:33.166Z,99.90
2018-08-30T03:16:00.298Z,99.90
2018-08-30T03:18:27.450Z,99.90
2018-08-30T03:20:54.632Z,99.90
2018-08-30T03:23:21.778Z,99.90
2018-08-30T03:25:49.669Z,99.90
2018-08-30T03:28:16.850Z,99.90
2018-08-30T03:30:44.059Z,99.90
2018-08-30T03:33:11.398Z,99.90
2018-08-30T03:35:38.531Z,99.90
2018-08-30T03:38:05.677Z,99.90
2018-08-30T03:40:32.829Z,99.90
2018-08-30T03:43:00.034Z,99.90
2018-08-30T03:45:27.162Z,99.90
2018-08-30T03:47:54.292Z,99.90
2018-08-30T03:50:21.451Z,99.90
2018-08-30T03:52:48.593Z,99.90
2018-08-30T03:55:15.862Z,99.90
2018-08-30T03:57:43.039Z,99.90
2018-08-30T04:00:10.219Z,99.90
2018-08-30T04:02:37.334Z,99.90
2018-08-30T04:05:04.741Z,99.90
2018-08-30T04:07:31.858Z,99.90
2018-08-30T04:09:59.021Z,99.90
2018-08-30T04:12:26.250Z,99.90
2018-08-30T04:14:53.352Z,99.90
2018-08-30T04:17:20.493Z,99.90
2018-08-30T04:19:47.642Z,99.90
2018-08-30T04:22:15.046Z,99.90
2018-08-30T04:24:42.242Z,99.90
2018-08-30T04:27:09.395Z,99.90
2018-08-30T04:29:36.498Z,99.90
2018-08-30T04:32:03.713Z,99.90
2018-08-30T04:34:30.818Z,99.90
2018-08-30T04:36:57.919Z,99.90
2018-08-30T04:39:25.058Z,99.90
2018-08-30T04:41:52.184Z,99.90
2018-08-30T04:44:19.354Z,99.90
2018-08-30T04:46:46.550Z,99.90
2018-08-30T04:49:13.700Z,99.90
2018-08-30T04:51:40.849Z,99.90
2018-08-30T04:54:07.978Z,99.90
2018-08-30T04:56:35.096Z,99.90
2018-08-30T04:59:02.254Z,99.90
2018-08-30T05:01:29.395Z,99.90
2018-08-30T05:03:56.719Z,99.90
2018-08-30T05:06:23.856Z,99.90
2018-08-30T05:08:51.075Z,99.90
2018-08-30T05:11:18.278Z,99.90
2018-08-30T05:13:45.473Z,99.90
2018-08-30T05:16:12.689Z,99.90
2018-08-30T05:18:39.891Z,99.90
2018-08-30T05:21:07.041Z,99.90
2018-08-30T05:23:34.163Z,99.90
2018-08-30T05:26:01.288Z,99.90
2018-08-30T05:28:28.542Z,99.90
2018-08-30T05:30:55.779Z,99.90
2018-08-30T05:33:22.918Z,99.90
2018-08-30T05:35:50.197Z,99.90
2018-08-30T05:38:17.283Z,99.90
2018-08-30T05:40:44.553Z,99.90
2018-08-30T05:43:11.741Z,99.90
2018-08-30T05:45:39.206Z,99.90
2018-08-30T05:48:06.342Z,99.90
2018-08-30T05:50:33.474Z,99.90
2018-08-30T05:53:00.611Z,99.90
2018-08-30T05:55:27.750Z,99.90
2018-08-30T05:57:54.908Z,99.90
2018-08-30T06:00:22.130Z,99.90
2018-08-30T06:02:49.450Z,99.90
2018-08-30T06:05:16.663Z,99.90
2018-08-30T06:07:44.420Z,99.90
2018-08-30T06:10:11.725Z,99.90
2018-08-30T06:12:38.902Z,99.90
2018-08-30T06:15:06.171Z,99.90
2018-08-30T06:17:33.366Z,99.90
2018-08-30T06:20:00.578Z,99.90
2018-08-30T06:22:27.761Z,99.90
2018-08-30T06:24:55.053Z,99.90
2018-08-30T06:27:22.303Z,99.90
2018-08-30T06:29:49.595Z,99.90
2018-08-30T06:32:16.961Z,99.90
2018-08-30T06:34:44.377Z,99.90
2018-08-30T06:37:11.732Z,99.90
2018-08-30T06:39:38.902Z,99.90
2018-08-30T06:42:06.064Z,99.90
2018-08-30T06:44:33.226Z,99.90
2018-08-30T06:47:00.429Z,99.90
2018-08-30T06:49:27.558Z,99.90
2018-08-30T06:51:54.750Z,99.90
2018-08-30T06:54:21.933Z,99.90
2018-08-30T06:56:49.253Z,99.90
2018-08-30T06:59:16.636Z,99.90
2018-08-30T07:01:44.001Z,99.90
2018-08-30T07:04:11.316Z,99.90
2018-08-30T07:06:38.424Z,99.90
2018-08-30T07:09:07.563Z,99.90
2018-08-30T07:11:34.746Z,99.90
2018-08-30T07:14:02.188Z,99.90
2018-08-30T07:16:29.378Z,99.90
2018-08-30T07:18:56.595Z,99.90
2018-08-30T07:21:23.879Z,99.90
2018-08-30T07:23:51.359Z,99.90
2018-08-30T07:26:18.596Z,99.90
2018-08-30T07:28:45.899Z,99.90
2018-08-30T07:31:13.213Z,99.90
2018-08-30T07:33:40.406Z,99.90
2018-08-30T07:36:07.604Z,99.90
2018-08-30T07:38:34.833Z,99.90
2018-08-30T07:41:02.166Z,99.90
2018-08-30T07:43:29.340Z,99.90
2018-08-30T07:45:56.475Z,99.90
2018-08-30T07:48:23.655Z,99.90
2018-08-30T07:50:50.943Z,99.90
2018-08-30T07:53:18.194Z,99.20
2018-08-30T07:55:45.535Z,99.90
2018-08-30T07:58:12.948Z,99.90
2018-08-30T08:00:40.176Z,99.50
2018-08-30T08:03:07.367Z,99.90
2018-08-30T08:05:34.627Z,99.90
2018-08-30T08:08:02.106Z,99.10
2018-08-30T08:10:29.330Z,94.80
2018-08-30T08:12:56.471Z,83.90
2018-08-30T08:15:23.685Z,76.70
2018-08-30T08:17:50.903Z,64.90
2018-08-30T08:20:18.230Z,58.70
2018-08-30T08:22:45.564Z,56.20
2018-08-30T08:25:13.037Z,54.00
2018-08-30T08:27:40.192Z,51.60
2018-08-30T08:30:07.357Z,55.80
2018-08-30T08:32:34.629Z,58.30
2018-08-30T08:35:01.929Z,58.30
2018-08-30T08:37:29.134Z,60.00
2018-08-30T08:39:56.424Z,64.30
2018-08-30T08:42:23.802Z,64.30
2018-08-30T08:44:51.094Z,63.70
2018-08-30T08:47:18.370Z,63.90
2018-08-30T08:49:45.723Z,63.30
2018-08-30T08:52:13.105Z,61.20
2018-08-30T08:54:40.247Z,56.80
2018-08-30T08:57:07.451Z,57.00
2018-08-30T08:59:34.664Z,57.00
2018-08-30T09:02:02.050Z,52.70
2018-08-30T09:04:29.239Z,51.50
2018-08-30T09:06:56.703Z,50.90
2018-08-30T09:09:24.004Z,51.90
2018-08-30T09:11:51.223Z,54.40
2018-08-30T09:14:18.577Z,56.50
2018-08-30T09:16:45.915Z,57.40
2018-08-30T09:19:13.242Z,56.00
2018-08-30T09:21:40.475Z,55.60
2018-08-30T09:24:07.771Z,59.00
2018-08-30T09:26:35.239Z,63.60
2018-08-30T09:29:02.394Z,68.10
2018-08-30T09:31:29.602Z,68.40
2018-08-30T09:33:56.932Z,69.40
2018-08-30T09:36:24.085Z,69.10
2018-08-30T09:38:51.348Z,67.10
2018-08-30T09:41:18.618Z,63.90
2018-08-30T09:43:46.097Z,62.70
2018-08-30T09:46:13.701Z,61.20
2018-08-30T09:48:47.779Z,59.10
2018-08-30T09:51:15.039Z,63.10
2018-08-30T09:53:42.421Z,63.50
2018-08-30T09:56:09.546Z,64.30
2018-08-30T09:58:36.747Z,62.90
2018-08-30T10:01:09.861Z,64.10
2018-08-30T10:03:37.129Z,64.00
2018-08-30T10:06:04.411Z,62.00
2018-08-30T10:08:31.576Z,61.60
2018-08-30T10:10:58.777Z,62.40
2018-08-30T10:13:26.020Z,59.70
2018-08-30T10:15:53.285Z,59.70
2018-08-30T10:18:20.459Z,59.70
2018-08-30T10:20:47.753Z,60.40
2018-08-30T10:23:15.049Z,59.90
2018-08-30T10:25:42.563Z,59.50
2018-08-30T10:28:09.754Z,58.60
2018-08-30T10:30:37.025Z,59.10
2018-08-30T10:33:04.632Z,60.50
2018-08-30T10:35:31.855Z,63.10
2018-08-30T10:37:59.055Z,63.40
2018-08-30T10:40:26.307Z,62.30
2018-08-30T10:42:53.648Z,61.90
2018-08-30T10:45:20.995Z,61.50
2018-08-30T10:47:48.343Z,60.30
2018-08-30T10:50:15.679Z,60.60
2018-08-30T10:52:43.077Z,58.90
2018-08-30T10:55:10.433Z,58.30
2018-08-30T10:57:37.642Z,57.80
2018-08-30T11:00:04.958Z,57.30
2018-08-30T11:02:32.219Z,57.20
2018-08-30T11:04:59.471Z,57.70
2018-08-30T11:07:26.744Z,59.70
2018-08-30T11:09:53.971Z,59.60
2018-08-30T11:12:21.366Z,59.30
2018-08-30T11:14:48.721Z,59.40
2018-08-30T11:17:16.109Z,57.00
2018-08-30T11:19:43.567Z,54.20
2018-08-30T11:22:10.910Z,53.30
2018-08-30T11:24:38.195Z,51.60
2018-08-30T11:27:05.544Z,52.20
2018-08-30T11:29:32.726Z,54.30
2018-08-30T11:31:59.930Z,54.80
2018-08-30T11:34:27.127Z,54.30
2018-08-30T11:36:54.494Z,54.20
2018-08-30T11:39:21.704Z,53.50
2018-08-30T11:41:49.207Z,53.10
2018-08-30T11:44:16.864Z,51.80
2018-08-30T11:46:44.192Z,51.70
2018-08-30T11:49:11.431Z,51.40
2018-08-30T11:51:38.748Z,50.30
2018-08-30T11:54:06.013Z,48.60
2018-08-30T11:56:33.314Z,49.60
2018-08-30T11:59:00.666Z,49.70
2018-08-30T12:01:27.810Z,49.30
2018-08-30T12:03:56.236Z,50.40
2018-08-30T12:06:23.846Z,49.70
2018-08-30T12:08:51.102Z,49.80
2018-08-30T12:11:18.480Z,50.60
2018-08-30T12:13:45.716Z,50.30
2018-08-30T12:16:13.209Z,50.80
2018-08-30T12:18:40.665Z,50.70
2018-08-30T12:21:07.944Z,49.20
2018-08-30T12:23:35.168Z,48.90
2018-08-30T12:26:02.319Z,49.20
2018-08-30T12:28:29.909Z,49.10
2018-08-30T12:30:57.290Z,47.60
2018-08-30T12:33:24.535Z,48.00
2018-08-30T12:35:51.909Z,49.40
2018-08-30T12:38:18.981Z,50.10
2018-08-30T12:40:46.429Z,51.00
2018-08-30T12:43:13.870Z,50.80
2018-08-30T12:45:40.996Z,51.10
2018-08-30T12:48:08.228Z,51.00
2018-08-30T12:50:35.693Z,51.80
2018-08-30T12:53:02.926Z,52.50
2018-08-30T12:55:30.146Z,53.90
2018-08-30T12:57:57.433Z,53.80
2018-08-30T13:00:25.032Z,52.90
2018-08-30T13:02:52.399Z,51.00
2018-08-30T13:05:19.612Z,52.10
2018-08-30T13:07:46.975Z,51.40
2018-08-30T13:10:14.393Z,51.40
2018-08-30T13:12:41.771Z,50.90
2018-08-30T13:15:09.270Z,51.60
2018-08-30T13:17:36.234Z,53.30
2018-08-30T13:20:03.580Z,53.30
2018-08-30T13:22:30.913Z,52.90
2018-08-30T13:24:58.084Z,53.30
2018-08-30T13:27:25.046Z,53.70
2018-08-30T13:29:52.442Z,53.10
2018-08-30T13:32:19.879Z,54.30
2018-08-30T13:34:47.308Z,54.30
2018-08-30T13:37:14.444Z,54.30
2018-08-30T13:39:41.775Z,53.50
2018-08-30T13:42:09.362Z,53.10
2018-08-30T13:44:36.358Z,52.70
2018-08-30T13:47:03.856Z,51.70
2018-08-30T13:49:30.900Z,51.00
2018-08-30T13:51:58.513Z,50.10
2018-08-30T13:54:25.703Z,50.00
2018-08-30T13:56:53.083Z,50.40
2018-08-30T13:59:20.375Z,50.20
2018-08-30T14:01:47.786Z,49.90
2018-08-30T14:04:14.942Z,50.40
2018-08-30T14:06:42.459Z,50.80
2018-08-30T14:09:09.564Z,50.70
2018-08-30T14:11:36.821Z,52.20
2018-08-30T14:14:04.052Z,52.10
2018-08-30T14:16:30.914Z,52.80
2018-08-30T14:18:58.056Z,54.50
2018-08-30T14:21:25.215Z,55.30
2018-08-30T14:23:52.470Z,55.20
2018-08-30T14:26:19.663Z,54.50
2018-08-30T14:28:47.108Z,53.50
2018-08-30T14:31:14.573Z,53.60
2018-08-30T14:33:41.807Z,52.20
2018-08-30T14:36:09.071Z,52.60
2018-08-30T14:38:36.220Z,52.90
2018-08-30T14:41:03.779Z,51.60
2018-08-30T14:43:30.737Z,49.80
2018-08-30T14:45:57.993Z,49.30
2018-08-30T14:48:25.219Z,49.00
2018-08-30T14:50:52.628Z,49.10
2018-08-30T14:53:19.999Z,50.20
2018-08-30T14:55:47.209Z,49.40
2018-08-30T14:58:14.463Z,48.30
2018-08-30T15:00:41.777Z,48.30
2018-08-30T15:03:09.035Z,48.40
2018-08-30T15:05:36.405Z,48.60
2018-08-30T15:08:03.606Z,49.10
2018-08-30T15:10:30.855Z,49.40
2018-08-30T15:12:58.107Z,48.40
2018-08-30T15:15:25.336Z,49.10
2018-08-30T15:17:52.590Z,49.70
2018-08-30T15:20:19.956Z,49.50
2018-08-30T15:22:47.336Z,49.60
2018-08-30T15:25:14.856Z,49.50
2018-08-30T15:27:42.194Z,49.60
2018-08-30T15:30:09.486Z,49.90
2018-08-30T15:32:36.710Z,50.90
2018-08-30T15:35:04.142Z,51.60
2018-08-30T15:37:31.278Z,52.20
2018-08-30T15:39:58.423Z,52.10
2018-08-30T15:42:25.672Z,52.00
2018-08-30T15:44:52.856Z,52.50
2018-08-30T15:47:20.279Z,52.90
2018-08-30T15:49:47.588Z,52.60
2018-08-30T15:52:14.950Z,53.70
2018-08-30T15:54:42.338Z,52.70
2018-08-30T15:57:09.608Z,53.00
2018-08-30T15:59:36.805Z,52.00
2018-08-30T16:02:04.187Z,52.40
2018-08-30T16:04:31.419Z,52.00
2018-08-30T16:06:58.592Z,51.40
2018-08-30T16:09:25.847Z,50.30
2018-08-30T16:11:53.078Z,50.60
2018-08-30T16:14:20.343Z,50.90
2018-08-30T16:16:47.606Z,50.80
2018-08-30T16:19:14.955Z,51.00
2018-08-30T16:21:42.254Z,50.50
2018-08-30T16:24:09.581Z,52.00
2018-08-30T16:26:36.823Z,51.80
2018-08-30T16:29:04.114Z,52.90
2018-08-30T16:31:31.351Z,52.20
2018-08-30T16:33:58.505Z,52.80
2018-08-30T16:36:25.805Z,52.90
2018-08-30T16:38:53.012Z,52.20
2018-08-30T16:41:20.295Z,52.10
2018-08-30T16:43:47.798Z,52.60
2018-08-30T16:46:15.133Z,52.90
2018-08-30T16:48:42.727Z,52.20
2018-08-30T16:51:09.972Z,52.30
2018-08-30T16:53:37.221Z,51.80
2018-08-30T16:56:04.593Z,52.00
2018-08-30T16:58:31.781Z,51.70
2018-08-30T17:00:59.401Z,52.80
2018-08-30T17:03:26.624Z,52.30
2018-08-30T17:05:53.942Z,52.90
2018-08-30T17:08:21.295Z,53.10
2018-08-30T17:10:48.593Z,52.70
2018-08-30T17:13:15.955Z,53.00
2018-08-30T17:15:43.579Z,53.60
2018-08-30T17:18:10.820Z,53.90
2018-08-30T17:20:39.932Z,54.20
2018-08-30T17:23:07.370Z,53.70
2018-08-30T17:25:34.617Z,54.00
2018-08-30T17:28:01.835Z,54.50
2018-08-30T17:30:29.135Z,54.60
2018-08-30T17:32:56.340Z,54.80
2018-08-30T17:35:24.218Z,55.00
2018-08-30T17:37:51.307Z,55.50
2018-08-30T17:40:18.747Z,55.70
2018-08-30T17:42:46.640Z,56.10
2018-08-30T17:45:14.135Z,55.80
2018-08-30T17:47:41.334Z,55.30
2018-08-30T17:50:08.717Z,56.10
2018-08-30T17:52:35.896Z,55.40
2018-08-30T17:55:03.072Z,55.80
2018-08-30T17:57:30.352Z,56.00
2018-08-30T17:59:57.748Z,55.00
2018-08-30T18:02:25.049Z,55.50
2018-08-30T18:04:52.265Z,55.80
2018-08-30T18:07:19.609Z,55.70
2018-08-30T18:09:46.944Z,56.00
2018-08-30T18:12:14.376Z,56.80
2018-08-30T18:14:41.575Z,56.10
2018-08-30T18:17:08.719Z,56.40
2018-08-30T18:19:35.858Z,56.30
2018-08-30T18:22:03.027Z,56.60
2018-08-30T18:24:30.146Z,56.60
2018-08-30T18:26:57.754Z,57.20
2018-08-30T18:29:24.915Z,57.90
2018-08-30T18:31:52.059Z,58.20
2018-08-30T18:34:19.499Z,58.70
2018-08-30T18:36:46.697Z,59.20
2018-08-30T18:39:13.824Z,59.50
2018-08-30T18:41:40.943Z,60.00
2018-08-30T18:44:08.091Z,61.10
2018-08-30T18:46:35.426Z,61.90
2018-08-30T18:49:02.550Z,62.00
2018-08-30T18:51:29.829Z,61.80
2018-08-30T18:53:56.988Z,62.40
2018-08-30T18:56:24.114Z,62.40
2018-08-30T18:58:51.269Z,63.10
2018-08-30T19:01:18.383Z,64.10
2018-08-30T19:03:45.636Z,64.90
2018-08-30T19:06:13.105Z,66.90
2018-08-30T19:08:40.225Z,66.90
2018-08-30T19:11:07.366Z,69.00
2018-08-30T19:13:34.513Z,69.50
2018-08-30T19:16:07.349Z,70.20
2018-08-30T19:18:40.200Z,71.20
2018-08-30T19:21:07.364Z,73.50
2018-08-30T19:23:34.719Z,75.00
2018-08-30T19:26:01.889Z,76.40
2018-08-30T19:28:29.050Z,76.10
2018-08-30T19:30:56.206Z,77.00
2018-08-30T19:33:23.331Z,77.30
2018-08-30T19:35:56.180Z,77.70
2018-08-30T19:38:23.326Z,78.60
2018-08-30T19:40:56.078Z,78.20
2018-08-30T19:43:23.194Z,77.70
2018-08-30T19:45:50.322Z,78.50
2018-08-30T19:48:17.566Z,78.50
2018-08-30T19:50:44.736Z,78.80
2018-08-30T19:53:12.004Z,77.80
2018-08-30T19:55:39.133Z,78.70
2018-08-30T19:58:06.267Z,79.30
2018-08-30T20:00:33.407Z,79.90
2018-08-30T20:03:00.584Z,81.30
2018-08-30T20:05:27.760Z,81.80
2018-08-30T20:07:55.138Z,81.50
2018-08-30T20:10:22.262Z,81.30
2018-08-30T20:12:49.390Z,82.10
2018-08-30T20:15:16.549Z,81.50
2018-08-30T20:17:43.682Z,82.10
2018-08-30T20:20:10.890Z,82.90
2018-08-30T20:22:38.108Z,83.20
2018-08-30T20:25:05.552Z,84.40
2018-08-30T20:27:32.686Z,84.80
2018-08-30T20:29:59.789Z,86.00
2018-08-30T20:32:26.900Z,86.60
2018-08-30T20:34:54.027Z,87.80
2018-08-30T20:37:21.167Z,89.40
2018-08-30T20:39:48.300Z,90.10
2018-08-30T20:42:15.477Z,91.00
2018-08-30T20:44:42.640Z,91.00
2018-08-30T20:47:09.750Z,91.50
2018-08-30T20:49:36.983Z,92.50
2018-08-30T20:52:04.223Z,93.20
2018-08-30T20:54:31.334Z,94.50
2018-08-30T20:56:58.487Z,95.60
2018-08-30T20:59:25.650Z,96.70
2018-08-30T21:01:52.782Z,97.90
2018-08-30T21:04:19.886Z,99.40
2018-08-30T21:06:47.086Z,99.90
2018-08-30T21:09:14.245Z,99.90
2018-08-30T21:11:41.362Z,99.90
2018-08-30T21:14:08.481Z,99.90
2018-08-30T21:16:35.614Z,99.90
2018-08-30T21:19:02.789Z,99.90
2018-08-30T21:21:30.231Z,99.90
2018-08-30T21:23:57.375Z,99.90
2018-08-30T21:26:24.481Z,99.90
2018-08-30T21:28:51.605Z,99.90
2018-08-30T21:31:18.742Z,99.90
2018-08-30T21:33:46.030Z,99.90
2018-08-30T21:36:13.171Z,99.90
2018-08-30T21:38:40.547Z,99.90
2018-08-30T21:41:07.650Z,99.90
2018-08-30T21:43:34.777Z,99.90
2018-08-30T21:46:01.955Z,99.90
2018-08-30T21:48:29.083Z,99.90
2018-08-30T21:50:56.203Z,99.90
2018-08-30T21:53:23.306Z,99.90
2018-08-30T21:55:50.452Z,99.90
2018-08-30T21:58:17.598Z,99.90
2018-08-30T22:00:44.925Z,94.60
2018-08-30T22:03:12.168Z,94.30
2018-08-30T22:05:39.340Z,92.30
2018-08-30T22:08:06.458Z,92.20
2018-08-30T22:10:33.581Z,93.70
2018-08-30T22:13:00.695Z,94.70
2018-08-30T22:15:27.802Z,94.40
2018-08-30T22:17:54.911Z,94.00
2018-08-30T22:20:22.066Z,93.70
2018-08-30T22:22:49.218Z,94.70
2018-08-30T22:25:16.371Z,94.80
2018-08-30T22:27:43.502Z,94.70
2018-08-30T22:30:10.897Z,95.50
2018-08-30T22:32:38.263Z,96.10
2018-08-30T22:35:05.902Z,96.40
2018-08-30T22:37:33.023Z,96.70
2018-08-30T22:40:00.211Z,96.50
2018-08-30T22:42:27.395Z,97.30
2018-08-30T22:44:54.474Z,98.10
2018-08-30T22:47:21.578Z,98.70
2018-08-30T22:49:48.764Z,99.80
2018-08-30T22:52:16.013Z,99.90
2018-08-30T22:54:43.140Z,99.90
2018-08-30T22:57:10.279Z,99.90
2018-08-30T22:59:37.465Z,99.90
2018-08-30T23:02:04.662Z,99.90
2018-08-30T23:04:31.771Z,99.90
2018-08-30T23:06:59.046Z,99.90
2018-08-30T23:09:26.157Z,99.90
2018-08-30T23:11:53.290Z,99.90
2018-08-30T23:14:20.419Z,99.90
2018-08-30T23:16:47.584Z,99.90
2018-08-30T23:19:14.744Z,99.90
2018-08-30T23:21:41.907Z,99.30
2018-08-30T23:24:09.019Z,99.50
2018-08-30T23:26:36.142Z,99.90
2018-08-30T23:29:03.278Z,99.90
2018-08-30T23:31:30.415Z,99.90
2018-08-30T23:33:57.520Z,99.90
2018-08-30T23:36:24.657Z,99.90
2018-08-30T23:38:51.786Z,99.90
2018-08-30T23:41:18.944Z,99.90
2018-08-30T23:43:46.175Z,99.90
2018-08-30T23:46:13.407Z,99.90
2018-08-30T23:48:40.525Z,99.90
2018-08-30T23:51:07.662Z,99.90
2018-08-30T23:53:34.786Z,99.90
2018-08-30T23:56:01.950Z,99.90
2018-08-30T23:58:40.771Z,99.90
